Time;durP1;ratioP1;P1;durP2;ratioP2;P2;SDS_P1;SDS_P2;PMS_P1;PMS_P2;Temp;Humidity;BMP_temperature;BMP_pressure;BME280_temperature;BME280_humidity;BME280_pressure;Samples;Min_cycle;Max_cycle;Signal;HPM_P1;HPM_P2
2023/08/09 09:35:28;;;;;;;8.80;8.40;;;19.90;23.40;;;;;;6224694;22;20459;-74
2023/08/09 09:37:55;;;;;;;9.37;8.97;;;19.90;23.60;;;;;;6280285;22;20500;-74
2023/08/09 09:40:22;;;;;;;8.57;8.17;;;19.90;23.70;;;;;;6272300;22;20386;-75
2023/08/09 09:42:53;;;;;;;9.13;8.63;;;20.00;23.60;;;;;;6245526;23;20398;-75
2023/08/09 09:45:25;;;;;;;9.03;8.63;;;20.00;23.80;;;;;;6218731;23;20370;-75
2023/08/09 09:47:52;;;;;;;8.80;8.50;;;20.00;23.50;;;;;;6244521;23;20418;-75
2023/08/09 09:50:22;;;;;;;9.30;8.90;;;20.00;23.60;;;;;;6244805;22;20455;-75
2023/08/09 09:52:51;;;;;;;9.30;8.70;;;20.00;23.50;;;;;;6244430;23;20378;-75
2023/08/09 09:55:25;;;;;;;9.70;9.20;;;20.00;23.50;;;;;;6244575;23;20374;-75
2023/08/09 09:57:52;;;;;;;8.23;7.83;;;20.10;23.60;;;;;;6218168;23;20870;-75
2023/08/09 10:00:22;;;;;;;8.53;8.13;;;20.10;23.60;;;;;;6244727;22;20408;-74
2023/08/09 10:02:49;;;;;;;9.47;8.80;;;20.10;23.90;;;;;;6245406;23;20374;-74
2023/08/09 10:05:20;;;;;;;8.20;7.90;;;20.10;23.80;;;;;;6244398;23;20374;-76
2023/08/09 10:07:48;;;;;;;8.13;7.70;;;20.10;23.70;;;;;;6217427;23;20410;-75
2023/08/09 10:10:14;;;;;;;7.80;7.50;;;20.10;23.70;;;;;;6244314;22;20455;-75
2023/08/09 10:12:56;;;;;;;7.70;7.30;;;20.10;23.80;;;;;;6244455;23;20363;-76
2023/08/09 10:15:29;;;;;;;8.47;7.80;;;20.10;23.80;;;;;;6244711;23;20460;-73
2023/08/09 10:17:59;;;;;;;8.70;8.20;;;20.20;24.10;;;;;;6244153;23;20464;-74
2023/08/09 10:20:26;;;;;;;8.80;8.40;;;20.20;23.90;;;;;;6244746;22;20505;-74
2023/08/09 10:22:58;;;;;;;8.40;7.90;;;20.30;23.70;;;;;;6245356;23;20374;-74
2023/08/09 10:25:43;;;;;;;8.03;7.43;;;20.30;23.90;;;;;;6246134;23;20359;-74
2023/08/09 10:28:09;;;;;;;8.60;8.13;;;20.30;23.80;;;;;;6246150;23;20492;-75
2023/08/09 10:30:53;;;;;;;8.30;7.80;;;20.30;23.80;;;;;;6246568;22;20437;-74
2023/08/09 10:33:19;;;;;;;7.90;7.60;;;20.30;24.00;;;;;;6219411;23;20521;-75
2023/08/09 10:35:51;;;;;;;8.00;7.60;;;20.20;24.10;;;;;;6246321;23;20425;-74
2023/08/09 10:38:37;;;;;;;7.50;7.20;;;20.20;24.00;;;;;;6246433;23;20734;-75
2023/08/09 10:41:11;;;;;;;8.53;7.93;;;20.20;24.40;;;;;;6246258;22;20494;-75
2023/08/09 10:43:37;;;;;;;9.60;9.10;;;20.20;24.20;;;;;;6219446;23;20401;-74
2023/08/09 10:46:31;;;;;;;7.73;7.33;;;20.20;24.40;;;;;;6245797;23;20806;-75
2023/08/09 10:49:01;;;;;;;8.30;7.80;;;20.20;24.50;;;;;;6245745;23;20168;-75
2023/08/09 10:51:27;;;;;;;7.77;7.37;;;20.10;24.80;;;;;;6246135;22;20390;-74
2023/08/09 10:54:05;;;;;;;8.00;7.67;;;20.10;24.80;;;;;;6246242;23;20497;-74
2023/08/09 10:56:41;;;;;;;7.90;7.53;;;20.20;24.90;;;;;;6246233;23;20687;-77
2023/08/09 10:59:13;;;;;;;9.00;8.50;;;20.20;25.00;;;;;;6246000;23;20365;-76
2023/08/09 11:01:40;;;;;;;8.10;7.70;;;20.30;24.90;;;;;;6246301;22;20378;-76
2023/08/09 11:04:10;;;;;;;8.20;7.80;;;20.40;24.80;;;;;;6246166;23;20393;-76
2023/08/09 11:06:38;;;;;;;7.80;7.30;;;20.40;23.90;;;;;;6245883;23;20406;-77
2023/08/09 11:09:09;;;;;;;9.23;8.70;;;20.50;24.60;;;;;;6246302;23;20457;-76
2023/08/09 11:11:35;;;;;;;9.07;8.57;;;20.50;24.40;;;;;;6218351;23;20434;-75
2023/08/09 11:14:02;;;;;;;8.80;8.37;;;20.60;24.50;;;;;;6245369;23;20370;-75
2023/08/09 11:16:27;;;;;;;8.23;7.83;;;20.60;25.00;;;;;;6219303;23;20728;-76
2023/08/09 11:19:02;;;;;;;7.60;7.20;;;20.60;24.90;;;;;;6244822;23;20381;-76
2023/08/09 11:21:27;;;;;;;8.50;8.00;;;20.60;24.60;;;;;;6245028;22;20645;-77
2023/08/09 11:23:57;;;;;;;8.50;8.10;;;20.60;24.90;;;;;;6246317;23;20461;-76
2023/08/09 11:26:23;;;;;;;8.30;7.80;;;20.60;25.00;;;;;;6220626;23;20166;-75
2023/08/09 11:28:48;;;;;;;8.50;8.00;;;20.50;25.20;;;;;;6246956;23;20462;-75
2023/08/09 11:31:14;;;;;;;8.70;8.20;;;20.50;25.00;;;;;;6247160;22;20167;-75
2023/08/09 11:33:39;;;;;;;9.20;8.80;;;20.50;24.90;;;;;;6246087;23;20148;-76
2023/08/09 11:36:08;;;;;;;9.60;9.30;;;20.50;25.00;;;;;;6246584;23;20178;-76
2023/08/09 11:38:33;;;;;;;9.20;8.90;;;20.50;25.20;;;;;;6219495;23;20162;-76
2023/08/09 11:40:59;;;;;;;9.10;8.80;;;20.60;24.90;;;;;;6219801;23;20421;-76
2023/08/09 11:43:24;;;;;;;9.53;9.13;;;20.60;24.50;;;;;;6246813;23;20254;-75
2023/08/09 11:45:55;;;;;;;9.70;9.00;;;20.60;24.70;;;;;;6220201;23;20155;-75
2023/08/09 11:48:34;;;;;;;10.33;9.60;;;20.60;25.50;;;;;;6245848;23;20206;-76
2023/08/09 11:51:04;;;;;;;8.80;8.40;;;20.60;25.00;;;;;;6245938;22;20428;-76
2023/08/09 11:53:32;;;;;;;9.83;9.40;;;20.70;24.50;;;;;;6245914;23;20381;-76
2023/08/09 11:56:02;;;;;;;9.30;8.90;;;20.70;24.80;;;;;;6245935;23;20554;-76
2023/08/09 11:58:27;;;;;;;9.13;8.73;;;20.80;24.60;;;;;;6245717;23;20385;-76
2023/08/09 12:00:53;;;;;;;10.00;9.60;;;20.80;24.20;;;;;;6245738;22;20399;-75
2023/08/09 12:03:22;;;;;;;9.50;9.10;;;20.80;24.00;;;;;;6247211;23;20147;-77
2023/08/09 12:05:51;;;;;;;9.17;8.67;;;20.80;24.00;;;;;;6246365;23;20213;-76
2023/08/09 12:08:17;;;;;;;9.57;9.00;;;20.80;23.80;;;;;;6245817;23;20410;-77
2023/08/09 12:10:43;;;;;;;9.10;8.70;;;20.80;23.70;;;;;;6245833;22;20398;-77
2023/08/09 12:13:09;;;;;;;8.50;8.20;;;20.80;23.70;;;;;;6245754;23;20373;-76
2023/08/09 12:15:35;;;;;;;8.80;8.50;;;20.90;23.60;;;;;;6245792;23;20153;-76
2023/08/09 12:18:01;;;;;;;9.10;8.70;;;20.90;23.60;;;;;;6245205;23;20449;-77
2023/08/09 12:20:27;;;;;;;9.40;9.00;;;20.90;23.50;;;;;;6245583;22;20171;-76
2023/08/09 12:22:52;;;;;;;9.37;8.87;;;20.90;23.70;;;;;;6245678;23;20413;-76
2023/08/09 12:25:18;;;;;;;9.20;8.87;;;20.90;23.80;;;;;;6245606;23;20159;-76
2023/08/09 12:27:44;;;;;;;9.83;8.90;;;20.90;24.00;;;;;;6245394;23;20213;-75
2023/08/09 12:30:13;;;;;;;9.73;9.33;;;20.90;23.20;;;;;;6218769;23;20171;-76
2023/08/09 12:32:38;;;;;;;8.67;8.37;;;20.90;23.50;;;;;;6218905;23;20151;-74
2023/08/09 12:35:05;;;;;;;8.60;8.23;;;21.00;23.30;;;;;;6245067;23;20383;-75
2023/08/09 12:37:31;;;;;;;9.20;8.80;;;21.00;23.30;;;;;;6246025;23;20537;-75
2023/08/09 12:39:56;;;;;;;8.87;8.27;;;21.00;23.30;;;;;;6245084;22;20386;-76
2023/08/09 12:42:22;;;;;;;8.97;8.57;;;21.00;23.60;;;;;;6245573;23;20152;-76
2023/08/09 12:44:47;;;;;;;9.60;9.27;;;21.00;23.00;;;;;;6245674;23;20162;-76
2023/08/09 12:47:15;;;;;;;9.07;8.63;;;21.00;23.20;;;;;;6218334;23;20608;-77
2023/08/09 12:49:41;;;;;;;8.30;8.00;;;21.00;22.90;;;;;;6245860;23;20151;-77
2023/08/09 12:52:06;;;;;;;9.00;8.60;;;21.00;23.10;;;;;;6245343;22;20390;-77
2023/08/09 12:54:32;;;;;;;9.07;8.60;;;21.10;22.40;;;;;;6245519;23;20525;-76
2023/08/09 12:56:57;;;;;;;8.27;7.97;;;21.20;22.50;;;;;;6245973;23;20147;-77
2023/08/09 12:59:23;;;;;;;8.40;8.00;;;21.20;21.90;;;;;;6245532;23;20152;-76
2023/08/09 13:01:49;;;;;;;7.77;7.47;;;21.20;21.80;;;;;;6245482;22;20246;-76
2023/08/09 13:04:18;;;;;;;9.00;8.50;;;21.20;21.20;;;;;;6245572;23;20465;-76
2023/08/09 13:06:44;;;;;;;8.87;8.57;;;21.20;20.70;;;;;;6246051;23;20168;-76
2023/08/09 13:09:10;;;;;;;9.20;8.80;;;21.20;21.00;;;;;;6245340;23;20385;-76
2023/08/09 13:11:35;;;;;;;8.27;7.93;;;21.20;21.10;;;;;;6246478;22;20619;-75
2023/08/09 13:14:01;;;;;;;8.47;8.03;;;21.20;21.20;;;;;;6245350;23;20148;-75
2023/08/09 13:16:26;;;;;;;9.33;8.83;;;21.20;21.30;;;;;;6245636;23;20176;-75
2023/08/09 13:18:52;;;;;;;10.00;9.33;;;21.20;21.70;;;;;;6245477;23;20144;-76
2023/08/09 13:21:18;;;;;;;9.00;8.60;;;21.20;21.80;;;;;;6218131;23;20171;-76
2023/08/09 13:23:44;;;;;;;8.70;8.30;;;21.20;22.10;;;;;;6245539;23;20148;-76
2023/08/09 13:26:11;;;;;;;9.40;8.90;;;21.20;22.10;;;;;;6245405;23;20845;-77
2023/08/09 13:28:37;;;;;;;8.77;8.33;;;21.20;22.10;;;;;;6245100;23;20375;-77
2023/08/09 13:31:02;;;;;;;9.47;9.00;;;21.20;21.80;;;;;;6245065;22;20942;-77
2023/08/09 13:33:28;;;;;;;10.00;9.10;;;21.20;22.30;;;;;;6244984;23;20152;-76
2023/08/09 13:35:53;;;;;;;8.90;8.30;;;21.20;22.50;;;;;;6244710;23;20246;-76
2023/08/09 13:38:31;;;;;;;8.57;8.23;;;21.30;22.60;;;;;;6244971;23;20226;-76
2023/08/09 13:40:58;;;;;;;8.40;8.07;;;21.30;22.10;;;;;;6244765;22;20245;-75
2023/08/09 13:43:27;;;;;;;8.87;8.47;;;21.30;22.60;;;;;;6244713;23;20375;-76
2023/08/09 13:45:53;;;;;;;8.40;8.10;;;21.30;22.60;;;;;;6244972;23;20384;-76
2023/08/09 13:48:18;;;;;;;9.00;8.60;;;21.30;22.60;;;;;;6244587;23;20442;-76
2023/08/09 13:50:46;;;;;;;8.83;8.33;;;21.30;22.60;;;;;;6244977;22;20167;-76
2023/08/09 13:53:12;;;;;;;8.97;8.33;;;21.40;22.50;;;;;;6218181;23;20156;-76
2023/08/09 13:55:38;;;;;;;7.33;7.03;;;21.60;21.20;;;;;;6245313;23;20385;-76
2023/08/09 13:58:04;;;;;;;8.53;8.07;;;21.60;20.90;;;;;;6244618;23;20719;-76
2023/08/09 14:00:30;;;;;;;8.33;7.93;;;21.70;20.20;;;;;;6218052;23;20187;-77
2023/08/09 14:02:56;;;;;;;8.57;8.10;;;21.70;20.60;;;;;;6245930;23;20881;-76
2023/08/09 14:05:22;;;;;;;8.70;8.30;;;21.60;20.70;;;;;;6245376;23;20374;-77
2023/08/09 14:07:47;;;;;;;8.93;8.47;;;21.70;20.20;;;;;;6245593;23;20747;-77
2023/08/09 14:10:13;;;;;;;8.90;8.50;;;21.80;19.60;;;;;;6245166;22;20413;-76
2023/08/09 14:12:39;;;;;;;7.80;7.40;;;21.80;19.50;;;;;;6245123;23;20175;-77
2023/08/09 14:15:06;;;;;;;8.27;7.87;;;21.80;19.00;;;;;;6244740;23;20143;-76
2023/08/09 14:17:31;;;;;;;9.00;8.53;;;21.80;18.60;;;;;;6243533;23;20382;-77
2023/08/09 14:19:57;;;;;;;8.43;8.10;;;21.80;18.80;;;;;;6243031;22;20461;-77
2023/08/09 14:22:23;;;;;;;8.50;8.20;;;21.80;19.30;;;;;;6217114;23;20183;-77
2023/08/09 14:24:48;;;;;;;8.90;8.50;;;21.80;19.20;;;;;;6217890;23;20167;-77
2023/08/09 14:27:14;;;;;;;8.57;8.17;;;21.80;19.50;;;;;;6244581;23;20406;-76
2023/08/09 14:29:42;;;;;;;8.90;8.50;;;21.80;19.50;;;;;;6244599;23;20274;-76
2023/08/09 14:32:10;;;;;;;9.63;9.03;;;21.80;19.90;;;;;;6244536;22;20173;-77
2023/08/09 14:34:36;;;;;;;9.03;8.63;;;21.80;19.20;;;;;;6244666;23;20839;-76
2023/08/09 14:37:02;;;;;;;8.70;8.40;;;21.80;19.00;;;;;;6244380;23;20386;-76
2023/08/09 14:39:27;;;;;;;8.70;8.30;;;21.80;19.00;;;;;;6244633;23;20366;-76
2023/08/09 14:41:53;;;;;;;8.70;8.40;;;21.80;19.00;;;;;;6244663;22;20210;-76
2023/08/09 14:44:18;;;;;;;7.93;7.63;;;21.80;19.20;;;;;;6244810;23;20568;-77
2023/08/09 14:46:44;;;;;;;8.33;7.90;;;21.80;19.40;;;;;;6244691;23;20221;-76
2023/08/09 14:49:09;;;;;;;8.80;8.40;;;21.70;19.80;;;;;;6243835;23;20172;-76
2023/08/09 14:51:35;;;;;;;8.97;8.57;;;21.70;19.90;;;;;;6244548;22;20566;-75
2023/08/09 14:54:01;;;;;;;9.30;8.80;;;21.70;19.80;;;;;;6245069;23;20156;-76
2023/08/09 14:56:26;;;;;;;8.17;7.87;;;21.70;20.00;;;;;;6244682;23;20374;-76
2023/08/09 14:58:53;;;;;;;8.50;8.20;;;21.70;20.00;;;;;;6244373;23;20194;-77
2023/08/09 15:01:21;;;;;;;8.70;8.40;;;21.80;19.50;;;;;;6244744;22;20168;-77
2023/08/09 15:03:50;;;;;;;8.80;8.40;;;21.70;19.60;;;;;;6244890;23;20842;-76
2023/08/09 15:06:15;;;;;;;8.20;7.90;;;21.70;19.70;;;;;;6244968;23;20427;-76
2023/08/09 15:08:41;;;;;;;9.10;8.70;;;21.70;19.40;;;;;;6250527;23;20398;-76
2023/08/09 15:11:06;;;;;;;7.63;7.33;;;21.80;19.30;;;;;;6252773;22;20175;-76
2023/08/09 15:13:32;;;;;;;8.03;7.73;;;21.70;19.40;;;;;;6249542;23;20227;-76
2023/08/09 15:15:58;;;;;;;8.33;7.83;;;21.70;19.50;;;;;;6248189;23;20170;-76
2023/08/09 15:18:23;;;;;;;7.80;7.40;;;21.70;20.00;;;;;;6247755;23;20480;-75
2023/08/09 15:20:50;;;;;;;8.00;7.70;;;21.80;19.80;;;;;;6248253;22;20216;-76
2023/08/09 15:23:16;;;;;;;7.53;7.13;;;21.80;19.80;;;;;;6248210;23;20151;-76
2023/08/09 15:25:41;;;;;;;7.57;7.27;;;21.80;20.00;;;;;;6247168;23;20417;-76
2023/08/09 15:28:07;;;;;;;7.70;7.40;;;21.80;19.90;;;;;;6246132;23;20175;-76
2023/08/09 15:30:32;;;;;;;7.80;7.50;;;21.80;19.70;;;;;;6246089;22;20173;-77
2023/08/09 15:32:58;;;;;;;8.60;8.30;;;21.80;19.90;;;;;;6246574;23;20170;-76
2023/08/09 15:35:24;;;;;;;12.83;12.10;;;21.80;20.10;;;;;;6247063;23;20238;-76
2023/08/09 15:37:51;;;;;;;9.03;8.57;;;21.80;20.30;;;;;;6222570;23;20485;-76
2023/08/09 15:40:16;;;;;;;8.80;8.47;;;21.80;20.50;;;;;;6218842;23;20211;-75
2023/08/09 15:42:42;;;;;;;10.20;9.47;;;21.80;20.20;;;;;;6246374;23;20385;-76
2023/08/09 15:45:09;;;;;;;8.90;8.30;;;21.80;19.80;;;;;;6245599;23;20151;-77
2023/08/09 15:47:35;;;;;;;10.37;9.93;;;21.80;20.20;;;;;;6245782;23;20414;-76
2023/08/09 15:50:01;;;;;;;9.90;9.30;;;21.70;20.30;;;;;;6245385;22;20718;-76
2023/08/09 15:52:26;;;;;;;8.30;8.00;;;21.70;20.60;;;;;;6244066;23;20159;-77
2023/08/09 15:54:52;;;;;;;8.20;7.87;;;21.70;20.90;;;;;;6217459;23;20155;-76
2023/08/09 15:57:17;;;;;;;8.93;8.40;;;21.70;19.50;;;;;;6244697;23;20484;-76
2023/08/09 15:59:43;;;;;;;12.50;11.70;;;21.80;19.20;;;;;;6245376;23;20543;-77
2023/08/09 16:02:13;;;;;;;8.33;8.00;;;21.90;18.90;;;;;;6245462;22;20237;-76
2023/08/09 16:04:39;;;;;;;13.30;12.50;;;21.90;19.10;;;;;;6218930;23;20155;-77
2023/08/09 16:07:06;;;;;;;8.03;7.63;;;21.90;19.20;;;;;;6218916;23;20421;-76
2023/08/09 16:09:32;;;;;;;8.33;8.03;;;21.90;19.20;;;;;;6245411;23;20374;-75
2023/08/09 16:11:57;;;;;;;8.87;8.57;;;21.90;18.90;;;;;;6246002;22;20382;-77
2023/08/09 16:14:24;;;;;;;8.07;7.77;;;22.00;18.80;;;;;;6244764;23;20227;-77
2023/08/09 16:16:49;;;;;;;9.20;8.70;;;22.00;18.70;;;;;;6245257;23;20152;-76
2023/08/09 16:19:15;;;;;;;8.60;8.20;;;22.00;18.20;;;;;;6245082;23;20381;-76
2023/08/09 16:21:42;;;;;;;8.60;8.10;;;22.00;18.40;;;;;;6245100;22;20171;-77
2023/08/09 16:24:08;;;;;;;7.40;7.00;;;22.00;18.50;;;;;;6218734;23;20510;-76
2023/08/09 16:26:34;;;;;;;9.90;9.40;;;22.10;18.40;;;;;;6245785;23;20446;-76
2023/08/09 16:29:07;;;;;;;7.80;7.43;;;22.10;18.50;;;;;;6246932;23;20775;-77
2023/08/09 16:31:33;;;;;;;7.57;7.27;;;22.00;18.60;;;;;;6219912;23;20763;-76
2023/08/09 16:33:58;;;;;;;8.60;8.20;;;22.00;18.80;;;;;;6221542;23;20441;-76
2023/08/09 16:36:24;;;;;;;8.53;8.13;;;22.00;18.50;;;;;;6251666;23;20169;-76
2023/08/09 16:38:49;;;;;;;7.30;7.00;;;22.00;18.80;;;;;;6250712;23;20150;-77
2023/08/09 16:41:15;;;;;;;8.90;8.40;;;22.00;18.40;;;;;;6245115;22;20171;-77
2023/08/09 16:43:40;;;;;;;7.50;7.30;;;22.00;18.40;;;;;;6245796;23;20148;-75
2023/08/09 16:46:06;;;;;;;9.07;8.63;;;22.00;18.50;;;;;;6245830;23;20147;-75
2023/08/09 16:48:32;;;;;;;7.40;7.07;;;22.00;18.80;;;;;;6245218;23;20179;-76
2023/08/09 16:50:58;;;;;;;9.80;9.20;;;22.00;18.70;;;;;;6218451;23;20252;-76
2023/08/09 16:53:24;;;;;;;7.10;6.90;;;21.90;18.70;;;;;;6218496;23;20462;-77
2023/08/09 16:55:50;;;;;;;7.17;6.93;;;22.00;18.40;;;;;;6245362;23;20222;-77
2023/08/09 16:58:15;;;;;;;6.93;6.63;;;22.00;18.30;;;;;;6245332;23;20155;-77
2023/08/09 17:00:42;;;;;;;8.60;8.20;;;22.00;17.90;;;;;;6245108;22;20900;-77
2023/08/09 17:03:08;;;;;;;8.30;7.80;;;22.00;17.90;;;;;;6245337;23;20147;-77
2023/08/09 17:05:38;;;;;;;8.33;7.93;;;22.00;18.30;;;;;;6245563;23;20434;-76
2023/08/09 17:08:04;;;;;;;7.20;6.90;;;22.00;18.40;;;;;;6245292;23;20424;-75
2023/08/09 17:10:30;;;;;;;7.90;7.50;;;22.00;18.40;;;;;;6221342;23;20433;-76
2023/08/09 17:12:57;;;;;;;7.03;6.83;;;21.90;18.70;;;;;;6221381;23;20238;-76
2023/08/09 17:15:23;;;;;;;6.63;6.43;;;21.90;18.70;;;;;;6228322;23;20366;-76
2023/08/09 17:17:48;;;;;;;7.23;6.93;;;21.90;19.00;;;;;;6251646;23;20382;-75
2023/08/09 17:20:14;;;;;;;8.70;8.10;;;21.90;18.90;;;;;;6230850;23;20669;-76
2023/08/09 17:22:39;;;;;;;7.07;6.77;;;21.90;19.00;;;;;;6258958;23;20182;-77
2023/08/09 17:25:06;;;;;;;7.10;6.80;;;21.90;19.20;;;;;;6265902;23;20155;-77
2023/08/09 17:27:31;;;;;;;7.43;7.13;;;21.80;18.90;;;;;;6237038;23;20178;-76
2023/08/09 17:29:57;;;;;;;8.70;8.30;;;21.80;19.20;;;;;;6256204;22;20375;-76
2023/08/09 17:32:23;;;;;;;20.03;18.50;;;21.80;19.40;;;;;;6248890;23;20147;-77
2023/08/09 17:34:49;;;;;;;8.80;8.40;;;21.80;19.80;;;;;;6248732;23;20143;-77
2023/08/09 17:37:15;;;;;;;7.57;7.27;;;21.70;19.90;;;;;;6244849;23;20384;-77
2023/08/09 17:39:41;;;;;;;7.23;6.93;;;21.70;20.20;;;;;;6245501;23;20379;-77
2023/08/09 17:42:07;;;;;;;7.23;6.93;;;21.60;20.40;;;;;;6244681;22;20171;-77
2023/08/09 17:44:33;;;;;;;7.00;6.70;;;21.60;21.10;;;;;;6244567;23;20444;-77
2023/08/09 17:46:59;;;;;;;7.80;7.50;;;21.60;22.80;;;;;;6217469;23;20185;-77
2023/08/09 17:49:25;;;;;;;7.33;7.03;;;21.50;23.20;;;;;;6244370;23;20599;-77
2023/08/09 17:51:51;;;;;;;7.40;7.10;;;21.40;24.00;;;;;;6245272;22;20190;-77
2023/08/09 17:54:16;;;;;;;9.40;9.00;;;21.40;24.70;;;;;;6245668;23;20697;-77
2023/08/09 17:56:42;;;;;;;8.27;7.97;;;21.30;25.30;;;;;;6245076;23;20147;-77
2023/08/09 17:59:09;;;;;;;8.80;8.50;;;21.30;26.20;;;;;;6244911;23;20155;-77
2023/08/09 18:01:34;;;;;;;7.80;7.50;;;21.20;26.70;;;;;;6244583;22;20171;-77
2023/08/09 18:04:00;;;;;;;8.87;8.40;;;21.10;27.10;;;;;;6242762;23;20392;-78
2023/08/09 18:06:26;;;;;;;8.03;7.73;;;21.00;27.70;;;;;;6215826;23;20603;-78
2023/08/09 18:08:52;;;;;;;8.47;8.03;;;20.90;28.20;;;;;;6244724;23;20371;-77
2023/08/09 18:11:19;;;;;;;8.90;8.20;;;20.90;28.90;;;;;;6243982;22;20390;-76
2023/08/09 18:13:45;;;;;;;8.40;8.10;;;20.80;30.20;;;;;;6243540;23;20151;-77
2023/08/09 18:16:11;;;;;;;8.90;8.30;;;20.80;29.90;;;;;;6243699;23;20742;-77
2023/08/09 18:18:36;;;;;;;7.70;7.30;;;20.70;30.50;;;;;;6245788;23;20385;-77
2023/08/09 18:21:02;;;;;;;9.13;8.70;;;20.70;30.80;;;;;;6219200;23;20171;-77
2023/08/09 18:23:28;;;;;;;9.30;8.67;;;20.60;30.60;;;;;;6247540;23;20179;-76
2023/08/09 18:25:53;;;;;;;8.03;7.57;;;20.60;30.40;;;;;;6247389;23;20173;-77
2023/08/09 18:28:18;;;;;;;10.80;10.30;;;20.60;32.50;;;;;;6246186;23;20459;-77
2023/08/09 18:30:45;;;;;;;8.10;7.80;;;20.60;31.10;;;;;;6245642;22;20244;-77
2023/08/09 18:33:11;;;;;;;8.57;8.27;;;20.60;31.00;;;;;;6246485;23;20151;-77
2023/08/09 18:35:36;;;;;;;8.47;8.07;;;20.60;31.00;;;;;;6246446;23;20456;-77
2023/08/09 18:38:02;;;;;;;8.13;7.83;;;20.50;31.10;;;;;;6246404;23;20155;-78
2023/08/09 18:40:28;;;;;;;8.50;8.20;;;20.50;31.40;;;;;;6219593;23;20176;-77
2023/08/09 18:42:53;;;;;;;9.10;8.60;;;20.40;31.70;;;;;;6252220;23;20151;-76
2023/08/09 18:45:19;;;;;;;8.07;7.77;;;20.40;31.80;;;;;;6230459;23;20247;-77
2023/08/09 18:47:45;;;;;;;9.63;9.20;;;20.40;32.00;;;;;;6231355;23;20247;-76
2023/08/09 18:50:11;;;;;;;8.50;8.10;;;20.30;31.90;;;;;;6253669;22;20587;-76
2023/08/09 18:52:38;;;;;;;8.87;8.47;;;20.30;32.70;;;;;;6256747;23;20873;-76
2023/08/09 18:55:08;;;;;;;8.50;8.17;;;20.30;32.70;;;;;;6257245;23;20430;-77
2023/08/09 18:57:33;;;;;;;8.27;7.87;;;20.30;32.60;;;;;;6223588;23;20866;-77
2023/08/09 18:59:59;;;;;;;8.50;8.00;;;20.30;33.70;;;;;;6249606;22;20424;-77
2023/08/09 19:02:24;;;;;;;9.27;8.77;;;20.30;35.70;;;;;;6226567;23;20159;-78
2023/08/09 19:04:50;;;;;;;8.87;8.27;;;20.20;38.00;;;;;;6252521;23;20234;-78
2023/08/09 19:07:16;;;;;;;8.47;8.07;;;20.10;39.10;;;;;;6253510;23;20178;-78
2023/08/09 19:09:45;;;;;;;7.80;7.37;;;20.00;40.30;;;;;;6253215;23;20150;-77
2023/08/09 19:12:10;;;;;;;7.63;7.33;;;20.00;40.30;;;;;;6248975;22;20397;-78
2023/08/09 19:14:36;;;;;;;7.73;7.23;;;19.90;40.60;;;;;;6252111;23;20780;-78
2023/08/09 19:17:02;;;;;;;9.17;8.63;;;19.80;41.00;;;;;;6248570;23;20152;-78
2023/08/09 19:19:27;;;;;;;8.20;7.70;;;19.70;41.40;;;;;;6220564;23;20155;-77
2023/08/09 19:21:53;;;;;;;10.37;9.53;;;19.70;42.80;;;;;;6248028;22;20393;-77
2023/08/09 19:24:18;;;;;;;8.80;8.30;;;19.70;42.40;;;;;;6247097;23;20246;-77
2023/08/09 19:26:44;;;;;;;7.40;7.10;;;19.70;43.10;;;;;;6246326;23;20178;-77
2023/08/09 19:29:12;;;;;;;8.33;7.77;;;19.60;43.70;;;;;;6247276;23;20155;-76
2023/08/09 19:31:38;;;;;;;7.80;7.40;;;19.60;43.10;;;;;;6251704;22;20170;-77
2023/08/09 19:34:04;;;;;;;7.57;7.17;;;19.60;43.50;;;;;;6255213;23;20456;-77
2023/08/09 19:36:30;;;;;;;7.40;7.10;;;19.60;44.10;;;;;;6249360;23;20386;-77
2023/08/09 19:38:55;;;;;;;8.00;7.60;;;19.60;43.60;;;;;;6227789;23;20193;-78
2023/08/09 19:41:21;;;;;;;9.70;8.83;;;19.50;43.40;;;;;;6250195;22;20172;-77
2023/08/09 19:43:47;;;;;;;10.00;9.43;;;19.60;43.70;;;;;;6252537;23;20530;-76
2023/08/09 19:46:12;;;;;;;12.13;11.23;;;19.50;43.50;;;;;;6248611;23;20156;-76
2023/08/09 19:48:39;;;;;;;9.00;8.50;;;19.50;43.80;;;;;;6249443;23;20167;-77
